الصفحة الرئيسية
METAR-TAF:

METAR-TAF

مطار :

ييكاتيرينبرغ, روسيا

دائرة عرض: 56-50N, خط طول: 060-38E, ارتفاع: 237 متر

مراقبة الطقس الحالي

تاريخ ووقت الإصدار 23 دقيقة قبل الساعة 22:30UTC
ريح 6 عقدة من الشمال الغربي
درجة الحرارة 13°درجة مئوية
الرطوبة 88%
ضغط 1013 hPa
الرؤية 10 كم أو أكثر
الغيوم لا تقل 1500 م ولا وجود لمزنة ركامية السحاب الأسود

METAR: USSS 152230Z 31003MPS CAVOK 13/11 Q1013 R26L/010060 R26R/010060 NOSIG RMK QFE739/0986

زمن: 03:53 (22:53 UTC)

توقعات

تاريخ ووقت الإصدار 2ساعات و 55 دقيقة قبل الساعة 19:58UTC
التوقعات صالحة من15 الساعة 21 UTC إلى 16 الساعة 21 UTC
ريح 6 عقدة من الغرب/الشمال الغربي تتزايد حتى 16 عقدة
الرؤية 10 كم أو أكثر
الغيوم لا تقل 1500 م ولا وجود لمزنة ركامية السحاب الأسود
أصبح
من 16 الساعة 10 UTC إلى 16 الساعة 11 UTC
ريح 6 عقدة من الجنوب الغربي تتزايد حتى 16 عقدة
غيوم مفككة على ارتفاع 1100 قدم
غيوم متفرقة على ارتفاع 2000 قدم, مزنة ركامية.
أصبح
من 16 الساعة 13 UTC إلى 16 الساعة 15 UTC
الرؤية: 6000 متر
زخات من الأمطار الخفيفة

TAF: USSS 151958Z 1521/1621 30003G08MPS CAVOK BECMG 1610/1611 23003G08MPS BKN011 SCT020CB BECMG 1613/1615 6000 -SHRA

أرصاد الطقس والتوقعات من أكثر من 4000 مطار (تقارير الطقس للمطار METAR والتنبؤ بالطقس بالمطارTAF).

المحطات المتاحة هي النقط الصفراء والحمراء على الخريطة.

حرك المؤشر فوق النقطة لمعرفة اسم المحطة.

ثم انقر لمعرفة أرصاد وتوقعات الطقس.

لتغيير الخارطة: اضغط على الأزرار الخضراء مع رمز الصليب الأسود للتكبير. على الزر الأخضر مع شرطة للتصغير، أو على الأسهم الخضراء للخرائط المجاورة.


METAR-TAF: